Time;durP1;ratioP1;P1;durP2;ratioP2;P2;SDS_P1;SDS_P2;PMS_P1;PMS_P2;Temp;Humidity;BMP_temperature;BMP_pressure;BME280_temperature;BME280_humidity;BME280_pressure;Samples;Min_cycle;Max_cycle;Signal;HPM_P1;HPM_P2
2023/01/11 00:01:01;;;;;;;5.97;5.40;;;5.40;1.00;;;;;;6285062;28;20252;-56
2023/01/11 00:04:04;;;;;;;7.03;5.80;;;5.40;1.00;;;;;;6291108;28;20724;-55
2023/01/11 00:07:08;;;;;;;9.27;5.80;;;5.40;1.00;;;;;;6281029;28;20229;-56
2023/01/11 00:10:11;;;;;;;9.70;5.50;;;5.40;1.00;;;;;;6284673;28;20241;-56
2023/01/11 00:13:15;;;;;;;6.60;5.00;;;5.20;1.00;;;;;;6285643;28;20618;-56
2023/01/11 00:16:18;;;;;;;7.83;5.67;;;5.30;1.00;;;;;;6271431;28;20248;-56
2023/01/11 00:19:21;;;;;;;12.93;5.80;;;5.10;1.00;;;;;;6260738;28;20242;-56
2023/01/11 00:22:26;;;;;;;9.10;5.33;;;5.30;1.00;;;;;;6260128;28;20233;-56
2023/01/11 00:25:29;;;;;;;10.27;5.50;;;5.60;1.00;;;;;;6260717;28;20237;-56
2023/01/11 00:28:32;;;;;;;5.90;5.30;;;5.10;1.00;;;;;;6259730;28;20706;-56
2023/01/11 00:31:35;;;;;;;7.20;5.53;;;5.20;1.00;;;;;;6262152;28;20234;-57
2023/01/11 00:34:38;;;;;;;8.77;5.27;;;5.40;1.00;;;;;;6290080;28;20252;-56
2023/01/11 00:37:43;;;;;;;10.57;5.20;;;5.30;1.00;;;;;;6282012;28;20264;-56
2023/01/11 00:40:47;;;;;;;9.93;4.80;;;5.30;1.00;;;;;;6276427;28;20237;-56
2023/01/11 00:50:38;;;;;;;11.07;5.63;;;5.50;1.00;;;;;;6283308;28;20229;-56
2023/01/11 00:53:47;;;;;;;9.47;6.03;;;5.40;1.00;;;;;;6284563;28;20392;-56
2023/01/11 00:56:50;;;;;;;9.27;5.80;;;5.30;1.00;;;;;;6277710;28;20230;-56
2023/01/11 00:59:53;;;;;;;6.03;5.47;;;5.50;1.00;;;;;;6259729;28;20749;-56
2023/01/11 01:02:56;;;;;;;8.07;6.67;;;5.20;1.00;;;;;;6290870;28;20608;-56
2023/01/11 01:05:59;;;;;;;8.33;5.50;;;5.10;1.00;;;;;;6283817;28;20748;-55
2023/01/11 01:09:04;;;;;;;11.17;7.50;;;5.30;1.00;;;;;;6283275;28;20237;-55
2023/01/11 01:12:08;;;;;;;10.07;6.80;;;5.00;1.00;;;;;;6284691;28;20240;-55
2023/01/11 01:15:11;;;;;;;12.17;6.07;;;5.30;1.00;;;;;;6255050;28;20234;-56
2023/01/11 01:18:14;;;;;;;8.80;7.00;;;5.30;1.00;;;;;;6254485;28;20242;-56
2023/01/11 01:21:17;;;;;;;10.03;6.27;;;5.10;1.00;;;;;;6253049;28;20248;-55
2023/01/11 01:24:22;;;;;;;12.43;6.67;;;5.00;1.00;;;;;;6258790;28;20253;-56
2023/01/11 01:27:25;;;;;;;7.93;5.90;;;5.00;1.00;;;;;;6258950;28;20230;-55
2023/01/11 01:30:28;;;;;;;9.57;5.93;;;4.80;1.00;;;;;;6259167;28;20717;-56
2023/01/11 01:33:31;;;;;;;7.93;6.40;;;5.10;1.00;;;;;;6268775;28;20666;-59
2023/01/11 01:36:35;;;;;;;9.30;5.50;;;4.90;1.00;;;;;;6278216;28;20231;-56
2023/01/11 01:39:39;;;;;;;10.77;5.63;;;5.00;1.00;;;;;;6283183;28;20644;-56
2023/01/11 01:42:44;;;;;;;8.90;5.40;;;5.00;1.00;;;;;;6267879;28;20238;-56
2023/01/11 01:45:48;;;;;;;6.30;5.27;;;5.10;1.00;;;;;;6258786;28;20606;-57
2023/01/11 01:48:57;;;;;;;12.40;5.77;;;5.10;1.00;;;;;;6257703;28;20246;-57
2023/01/11 01:52:01;;;;;;;9.60;5.53;;;5.10;1.00;;;;;;6259208;28;20642;-55
2023/01/11 01:55:10;;;;;;;6.40;5.40;;;5.10;1.00;;;;;;6256606;28;20273;-56
2023/01/11 01:58:18;;;;;;;11.90;5.43;;;5.30;1.00;;;;;;6255294;28;20232;-56
2023/01/11 02:04:44;;;;;;;7.10;5.50;;;5.20;1.00;;;;;;6276513;28;20376;-57
2023/01/11 02:07:48;;;;;;;6.63;5.97;;;5.10;1.00;;;;;;6273082;28;20241;-57
2023/01/11 02:10:53;;;;;;;8.13;5.63;;;5.20;1.00;;;;;;6279151;28;20229;-57
2023/01/11 02:13:58;;;;;;;6.70;5.13;;;5.10;1.00;;;;;;6283607;28;20613;-57
2023/01/11 02:17:01;;;;;;;6.03;5.27;;;5.30;1.00;;;;;;6279875;28;20236;-56
2023/01/11 02:20:26;;;;;;;5.93;5.30;;;5.50;1.00;;;;;;6258785;28;20331;-55
2023/01/11 02:23:58;;;;;;;5.33;4.57;;;5.40;1.00;;;;;;6246788;28;20230;-56
2023/01/11 02:27:28;;;;;;;8.00;4.73;;;5.30;1.00;;;;;;6265499;28;20233;-55
2023/01/11 02:30:41;;;;;;;7.13;4.90;;;5.20;1.00;;;;;;6282893;28;20240;-55
2023/01/11 02:33:51;;;;;;;8.67;4.90;;;5.40;1.00;;;;;;6287485;28;20694;-56
2023/01/11 02:37:08;;;;;;;6.40;5.10;;;5.50;1.00;;;;;;6281680;28;20236;-56
2023/01/11 02:40:21;;;;;;;6.50;5.00;;;5.50;1.00;;;;;;6268316;28;20261;-56
2023/01/11 02:46:57;;;;;;;5.87;4.87;;;5.50;1.00;;;;;;6285260;28;20237;-56
2023/01/11 02:50:07;;;;;;;8.43;4.67;;;5.70;1.00;;;;;;6268051;28;20632;-56
2023/01/11 02:53:17;;;;;;;6.57;5.13;;;5.40;1.00;;;;;;6258338;28;20775;-56
2023/01/11 02:56:24;;;;;;;6.23;4.70;;;5.40;1.00;;;;;;6262339;28;20238;-57
2023/01/11 02:59:31;;;;;;;4.87;4.47;;;5.50;1.00;;;;;;6263820;28;20241;-56
2023/01/11 03:02:35;;;;;;;9.83;5.23;;;5.60;1.00;;;;;;6280755;28;20229;-57
2023/01/11 03:05:44;;;;;;;4.90;4.50;;;5.60;1.00;;;;;;6287456;28;20499;-55
2023/01/11 03:09:01;;;;;;;6.97;4.20;;;5.70;1.00;;;;;;6285255;28;20253;-55
2023/01/11 03:16:10;;;;;;;6.30;4.43;;;6.00;1.00;;;;;;6262347;28;20602;-56
2023/01/11 03:19:28;;;;;;;5.87;4.40;;;5.80;1.00;;;;;;6262655;28;20241;-55
2023/01/11 03:22:43;;;;;;;4.97;4.13;;;5.80;1.00;;;;;;6262309;28;20245;-56
2023/01/11 03:25:55;;;;;;;5.13;4.40;;;5.80;1.00;;;;;;6259124;28;20241;-57
2023/01/11 03:29:08;;;;;;;4.60;4.30;;;5.80;1.00;;;;;;6262227;28;20245;-56
2023/01/11 03:32:19;;;;;;;5.73;4.27;;;5.80;1.00;;;;;;6275539;28;20224;-56
2023/01/11 03:35:28;;;;;;;7.63;4.40;;;5.90;1.00;;;;;;6282623;28;20242;-56
2023/01/11 03:38:37;;;;;;;6.53;4.47;;;6.00;1.00;;;;;;6272166;28;20701;-56
2023/01/11 03:41:56;;;;;;;10.37;4.40;;;5.80;1.00;;;;;;6287119;28;20225;-56
2023/01/11 03:45:02;;;;;;;8.30;4.30;;;6.00;1.00;;;;;;6287305;28;20583;-56
2023/01/11 03:48:12;;;;;;;5.07;4.60;;;6.20;1.00;;;;;;6261730;28;20245;-56
2023/01/11 03:51:20;;;;;;;5.07;4.23;;;6.10;1.00;;;;;;6261840;28;20230;-56
2023/01/11 03:54:25;;;;;;;4.83;4.30;;;6.00;1.00;;;;;;6262006;28;20241;-56
2023/01/11 03:57:31;;;;;;;3.83;3.73;;;6.00;1.00;;;;;;6261158;28;20233;-56
2023/01/11 04:00:36;;;;;;;6.40;4.17;;;6.40;1.00;;;;;;6261672;28;20426;-57
2023/01/11 04:03:39;;;;;;;4.37;3.97;;;6.10;1.00;;;;;;6280047;28;20238;-56
2023/01/11 04:06:43;;;;;;;4.83;4.33;;;6.10;1.00;;;;;;6286163;28;20785;-55
2023/01/11 04:09:46;;;;;;;4.33;4.03;;;6.00;1.00;;;;;;6271477;28;20750;-56
2023/01/11 04:12:50;;;;;;;5.10;4.30;;;6.20;1.00;;;;;;6267747;28;20230;-56
2023/01/11 04:15:53;;;;;;;6.27;4.00;;;6.20;1.00;;;;;;6261034;28;20242;-58
2023/01/11 04:18:56;;;;;;;4.37;4.07;;;6.00;1.00;;;;;;6260452;28;20606;-56
2023/01/11 04:22:01;;;;;;;4.83;4.43;;;6.10;1.00;;;;;;6261379;28;20226;-55
2023/01/11 04:25:05;;;;;;;4.67;4.27;;;6.10;1.00;;;;;;6285605;28;20237;-56
2023/01/11 04:28:08;;;;;;;5.07;4.70;;;6.10;1.00;;;;;;6285192;28;20475;-56
2023/01/11 04:31:11;;;;;;;5.33;4.10;;;6.40;1.00;;;;;;6281186;28;20721;-56
2023/01/11 04:34:23;;;;;;;4.97;4.20;;;6.20;1.00;;;;;;6260898;28;20244;-56
2023/01/11 04:37:28;;;;;;;5.33;3.87;;;6.00;1.00;;;;;;6278639;28;20421;-57
2023/01/11 04:40:31;;;;;;;7.00;4.27;;;6.00;1.00;;;;;;6286735;28;20724;-57
2023/01/11 04:43:33;;;;;;;5.17;4.70;;;6.40;1.00;;;;;;6277788;28;20241;-57
2023/01/11 04:46:36;;;;;;;4.03;3.93;;;6.20;1.00;;;;;;6287369;28;20233;-56
2023/01/11 04:49:39;;;;;;;5.07;4.60;;;6.10;1.00;;;;;;6280861;28;20741;-56
2023/01/11 04:52:43;;;;;;;4.07;3.80;;;6.20;1.00;;;;;;6284294;28;20237;-56
2023/01/11 04:55:47;;;;;;;4.23;4.03;;;6.20;1.00;;;;;;6283957;28;20722;-56
2023/01/11 04:58:50;;;;;;;4.07;3.80;;;6.10;1.00;;;;;;6276957;28;20236;-55
2023/01/11 05:01:53;;;;;;;5.13;4.73;;;6.20;1.00;;;;;;6281653;28;20226;-56
2023/01/11 05:04:56;;;;;;;4.70;4.30;;;6.00;1.00;;;;;;6285633;28;20483;-57
2023/01/11 05:08:00;;;;;;;6.40;4.07;;;6.20;1.00;;;;;;6278733;28;20236;-57
2023/01/11 05:11:05;;;;;;;4.23;4.03;;;6.10;1.00;;;;;;6280980;28;20241;-58
2023/01/11 05:14:08;;;;;;;5.47;3.87;;;6.30;1.00;;;;;;6283934;28;20775;-55
2023/01/11 05:17:15;;;;;;;4.67;4.03;;;5.90;1.00;;;;;;6281059;28;20240;-57
2023/01/11 05:20:18;;;;;;;4.13;3.80;;;6.10;1.00;;;;;;6287502;28;20237;-56
2023/01/11 05:23:23;;;;;;;4.83;4.43;;;6.20;1.00;;;;;;6284127;28;20273;-56
2023/01/11 05:26:29;;;;;;;5.17;4.50;;;6.10;1.00;;;;;;6282634;28;20226;-56
2023/01/11 05:29:32;;;;;;;4.53;4.00;;;6.00;1.00;;;;;;6278048;28;20249;-55
2023/01/11 05:32:36;;;;;;;4.70;4.27;;;6.30;1.00;;;;;;6288287;28;20232;-57
2023/01/11 05:35:39;;;;;;;5.20;4.67;;;6.30;1.00;;;;;;6273670;28;21597;-56
2023/01/11 05:38:46;;;;;;;4.57;4.40;;;6.00;1.00;;;;;;6269845;28;21262;-57
2023/01/11 05:41:49;;;;;;;5.57;4.77;;;6.10;1.00;;;;;;6282307;28;20808;-57
2023/01/11 05:48:13;;;;;;;5.07;4.03;;;6.40;1.00;;;;;;6280288;28;20546;-56
2023/01/11 05:51:18;;;;;;;4.20;3.90;;;6.20;1.00;;;;;;6285480;28;20391;-56
2023/01/11 05:54:23;;;;;;;4.53;4.10;;;6.20;1.00;;;;;;6283101;28;20601;-56
2023/01/11 05:57:25;;;;;;;4.20;4.00;;;6.40;1.00;;;;;;6282828;28;20244;-56
2023/01/11 06:00:29;;;;;;;4.90;4.40;;;6.30;1.00;;;;;;6284271;28;20628;-57
2023/01/11 06:03:32;;;;;;;4.07;3.87;;;6.10;1.00;;;;;;6283055;28;20234;-56
2023/01/11 06:06:35;;;;;;;4.70;4.27;;;6.30;1.00;;;;;;6282607;28;20247;-56
2023/01/11 06:09:39;;;;;;;4.63;4.13;;;6.20;1.00;;;;;;6283758;28;20245;-57
2023/01/11 06:12:42;;;;;;;4.30;3.90;;;6.10;1.00;;;;;;6282116;28;20241;-62
2023/01/11 06:15:46;;;;;;;5.40;4.27;;;6.20;1.00;;;;;;6283459;28;20282;-57
2023/01/11 06:18:51;;;;;;;4.33;3.97;;;6.30;1.00;;;;;;6287394;28;20475;-58
2023/01/11 06:21:54;;;;;;;4.77;4.27;;;5.90;1.00;;;;;;6281725;28;20233;-56
2023/01/11 06:24:58;;;;;;;4.87;4.50;;;6.00;1.00;;;;;;6283166;28;20395;-56
2023/01/11 06:28:02;;;;;;;4.70;4.30;;;6.20;1.00;;;;;;6289631;28;20615;-56
2023/01/11 06:31:06;;;;;;;5.17;4.27;;;6.20;1.00;;;;;;6287865;28;20237;-56
2023/01/11 06:34:10;;;;;;;4.60;4.00;;;6.20;1.00;;;;;;6288036;28;20241;-56
2023/01/11 06:37:14;;;;;;;4.13;3.80;;;6.20;1.00;;;;;;6282928;28;20237;-55
2023/01/11 06:40:19;;;;;;;4.23;3.97;;;6.20;1.00;;;;;;6290748;28;20240;-56
2023/01/11 06:43:26;;;;;;;4.23;4.00;;;6.40;1.00;;;;;;6291289;28;20639;-56
2023/01/11 06:46:30;;;;;;;4.43;4.20;;;6.60;1.00;;;;;;6288952;28;20233;-56
2023/01/11 06:49:33;;;;;;;4.60;4.17;;;6.40;1.00;;;;;;6281831;28;20233;-56
2023/01/11 06:52:36;;;;;;;6.10;4.50;;;6.30;1.00;;;;;;6286857;28;20237;-55
2023/01/11 06:55:40;;;;;;;4.60;4.23;;;6.30;1.00;;;;;;6276446;28;20247;-59
2023/01/11 06:58:44;;;;;;;5.07;4.10;;;6.40;1.00;;;;;;6279539;28;20276;-57
2023/01/11 07:01:49;;;;;;;3.90;3.70;;;6.30;1.00;;;;;;6291619;28;20677;-56
2023/01/11 07:04:52;;;;;;;4.47;4.03;;;6.10;1.00;;;;;;6288206;28;20231;-57
2023/01/11 07:07:55;;;;;;;4.30;4.00;;;6.20;1.00;;;;;;6291637;28;20733;-55
2023/01/11 07:11:06;;;;;;;4.30;4.10;;;6.60;1.00;;;;;;6285092;28;20244;-56
2023/01/11 07:14:10;;;;;;;6.87;4.20;;;6.30;1.00;;;;;;6279031;28;20229;-56
2023/01/11 07:17:14;;;;;;;4.53;4.17;;;6.30;1.00;;;;;;6285441;28;20243;-55
2023/01/11 07:20:17;;;;;;;4.33;4.00;;;6.20;1.00;;;;;;6286439;28;20468;-55
2023/01/11 07:23:22;;;;;;;5.53;3.90;;;6.60;1.00;;;;;;6288094;28;20229;-56
2023/01/11 07:26:27;;;;;;;5.97;4.13;;;6.30;1.00;;;;;;6285432;28;20252;-56
2023/01/11 07:29:30;;;;;;;4.40;4.20;;;6.60;1.00;;;;;;6288006;28;20236;-56
2023/01/11 07:32:34;;;;;;;4.73;4.20;;;6.40;1.00;;;;;;6268394;28;20229;-57
2023/01/11 07:35:38;;;;;;;4.77;4.03;;;6.40;1.00;;;;;;6281482;28;20247;-56
2023/01/11 07:38:41;;;;;;;5.30;4.37;;;6.50;1.00;;;;;;6281961;28;20245;-56
2023/01/11 07:45:08;;;;;;;4.33;4.07;;;6.70;1.00;;;;;;6286770;28;20683;-56
2023/01/11 07:48:12;;;;;;;5.03;4.63;;;6.50;1.00;;;;;;6282482;28;20237;-56
2023/01/11 07:51:19;;;;;;;3.90;3.70;;;6.70;1.00;;;;;;6271479;28;20535;-57
2023/01/11 07:54:23;;;;;;;5.00;4.63;;;6.70;1.00;;;;;;6280673;28;20778;-55
2023/01/11 07:57:28;;;;;;;4.63;4.40;;;6.70;1.00;;;;;;6289624;28;20312;-56
2023/01/11 08:00:31;;;;;;;5.50;5.00;;;6.70;1.00;;;;;;6281153;28;20313;-57
2023/01/11 08:03:35;;;;;;;4.27;3.90;;;6.60;1.00;;;;;;6283343;28;20236;-55
2023/01/11 08:06:38;;;;;;;4.73;4.40;;;6.80;1.00;;;;;;6279273;28;20251;-56
2023/01/11 08:09:42;;;;;;;4.53;4.17;;;6.70;1.00;;;;;;6293287;28;20237;-56
2023/01/11 08:16:09;;;;;;;5.40;4.30;;;6.80;1.00;;;;;;6277568;28;20706;-55
2023/01/11 08:19:12;;;;;;;5.30;4.90;;;7.00;1.00;;;;;;6267106;28;20460;-56
2023/01/11 08:22:16;;;;;;;5.03;4.47;;;7.10;1.00;;;;;;6286431;28;20701;-55
2023/01/11 08:25:19;;;;;;;4.97;4.43;;;6.80;1.00;;;;;;6280186;28;20251;-56
2023/01/11 08:28:24;;;;;;;4.40;4.10;;;7.00;1.00;;;;;;6237178;28;1149982;-56
2023/01/11 08:31:27;;;;;;;4.30;4.10;;;6.90;1.00;;;;;;6283598;28;20236;-56
2023/01/11 08:34:35;;;;;;;6.73;4.20;;;7.10;1.00;;;;;;6275218;28;20236;-56
2023/01/11 08:37:38;;;;;;;5.03;4.10;;;7.20;1.00;;;;;;6278522;28;20846;-56
2023/01/11 08:40:41;;;;;;;4.67;4.37;;;6.90;1.00;;;;;;6279210;28;20237;-55
2023/01/11 08:43:46;;;;;;;4.90;4.50;;;7.00;1.00;;;;;;6284208;28;20764;-55
2023/01/11 08:46:49;;;;;;;5.00;4.60;;;7.10;1.00;;;;;;6275329;28;20230;-56
2023/01/11 08:49:54;;;;;;;4.83;4.50;;;7.20;1.00;;;;;;6283099;28;20762;-57
2023/01/11 08:52:57;;;;;;;4.47;4.27;;;7.10;1.00;;;;;;6282648;28;20236;-55
2023/01/11 08:56:00;;;;;;;5.07;4.53;;;7.40;1.00;;;;;;6290793;28;20255;-56
2023/01/11 08:59:05;;;;;;;4.77;4.40;;;7.30;1.00;;;;;;6279580;28;20233;-57
2023/01/11 09:02:09;;;;;;;4.80;4.50;;;7.30;1.00;;;;;;6283411;28;20601;-56
2023/01/11 09:05:12;;;;;;;4.67;4.40;;;7.10;1.00;;;;;;6282501;28;20824;-57
2023/01/11 09:08:17;;;;;;;4.70;4.37;;;7.30;1.00;;;;;;6277156;28;20336;-56
2023/01/11 09:14:44;;;;;;;4.50;4.20;;;7.30;1.00;;;;;;6277164;28;20242;-56
2023/01/11 09:17:48;;;;;;;5.23;4.90;;;7.40;1.00;;;;;;6279713;28;20237;-57
2023/01/11 09:20:51;;;;;;;4.73;4.43;;;7.20;1.00;;;;;;6279829;28;20229;-56
2023/01/11 09:23:54;;;;;;;4.93;4.53;;;7.30;1.00;;;;;;6276648;28;20419;-56
2023/01/11 09:26:58;;;;;;;5.67;5.27;;;7.30;1.00;;;;;;6282868;28;20228;-56
2023/01/11 09:30:03;;;;;;;5.03;4.60;;;7.30;1.00;;;;;;6281239;28;20248;-56
2023/01/11 09:33:13;;;;;;;4.47;4.17;;;7.50;1.00;;;;;;6280597;28;20634;-55
2023/01/11 09:36:20;;;;;;;4.97;4.53;;;7.50;1.00;;;;;;6289525;28;20233;-55
2023/01/11 09:39:26;;;;;;;5.40;5.00;;;7.50;1.00;;;;;;6276922;28;20749;-56
2023/01/11 09:42:34;;;;;;;4.70;4.40;;;7.50;1.00;;;;;;6280806;28;20267;-58
2023/01/11 09:45:45;;;;;;;5.10;4.60;;;7.50;1.00;;;;;;6287418;28;20656;-55
2023/01/11 09:48:58;;;;;;;4.63;4.43;;;7.40;1.00;;;;;;6276869;28;20706;-56
2023/01/11 09:52:19;;;;;;;6.83;5.30;;;7.50;1.00;;;;;;6282927;28;20230;-56
2023/01/11 09:55:32;;;;;;;5.47;4.93;;;7.40;1.00;;;;;;6284520;28;20264;-57
2023/01/11 09:58:52;;;;;;;5.53;5.03;;;7.40;1.00;;;;;;6278111;28;20230;-56
2023/01/11 10:02:04;;;;;;;4.97;4.67;;;7.30;1.00;;;;;;6279459;28;20225;-55
2023/01/11 10:05:29;;;;;;;6.13;4.87;;;7.30;1.00;;;;;;6280997;28;20229;-56
2023/01/11 10:08:49;;;;;;;5.93;5.53;;;7.00;1.00;;;;;;6275184;28;20234;-55
2023/01/11 10:12:20;;;;;;;5.47;5.10;;;7.30;1.00;;;;;;6291288;28;20576;-54
2023/01/11 10:15:52;;;;;;;5.40;4.93;;;7.10;1.00;;;;;;6285176;28;20232;-56
2023/01/11 10:19:21;;;;;;;5.37;4.97;;;7.40;1.00;;;;;;6272440;28;20240;-55
2023/01/11 10:22:47;;;;;;;4.80;4.60;;;7.10;1.00;;;;;;6286946;28;20241;-55
2023/01/11 10:25:57;;;;;;;5.60;5.10;;;7.00;1.00;;;;;;6277307;28;20749;-55
2023/01/11 10:29:21;;;;;;;5.77;5.27;;;7.00;1.00;;;;;;6280554;28;20257;-55
2023/01/11 10:32:44;;;;;;;5.20;5.00;;;7.00;1.00;;;;;;6283512;28;20315;-55
2023/01/11 10:36:09;;;;;;;5.87;5.10;;;7.20;1.00;;;;;;6266661;28;20748;-55
2023/01/11 10:39:34;;;;;;;5.47;5.27;;;7.10;1.00;;;;;;6270521;28;20316;-55
2023/01/11 10:42:44;;;;;;;6.20;5.53;;;7.10;1.00;;;;;;6278922;28;20229;-56
2023/01/11 10:45:50;;;;;;;5.70;5.30;;;7.10;1.00;;;;;;6280999;28;20240;-55
2023/01/11 10:49:08;;;;;;;5.87;5.37;;;7.20;1.00;;;;;;6276076;28;20241;-55
2023/01/11 10:52:35;;;;;;;5.53;5.23;;;7.20;1.00;;;;;;6281007;28;20230;-56
2023/01/11 10:55:46;;;;;;;5.50;5.17;;;7.50;1.00;;;;;;6279215;28;20844;-55
2023/01/11 10:59:15;;;;;;;5.30;4.90;;;7.40;1.00;;;;;;6280311;28;20241;-56
2023/01/11 11:02:34;;;;;;;5.10;4.77;;;7.20;1.00;;;;;;6281053;28;20233;-55
2023/01/11 11:05:47;;;;;;;5.27;4.97;;;7.20;1.00;;;;;;6285864;28;20317;-56
2023/01/11 11:09:07;;;;;;;4.90;4.70;;;7.30;1.00;;;;;;6281487;28;20327;-56
2023/01/11 11:12:14;;;;;;;5.27;4.97;;;7.30;1.00;;;;;;6281876;28;20233;-57
2023/01/11 11:15:31;;;;;;;6.20;5.80;;;7.30;1.00;;;;;;6286118;28;20456;-57
2023/01/11 11:18:35;;;;;;;5.10;5.00;;;7.30;1.00;;;;;;6285577;28;20237;-55
2023/01/11 11:21:41;;;;;;;5.67;5.37;;;7.50;1.00;;;;;;6294012;28;20630;-54
2023/01/11 11:24:52;;;;;;;6.60;6.10;;;7.30;1.00;;;;;;6281068;28;20321;-57
2023/01/11 11:27:58;;;;;;;5.63;5.23;;;7.70;1.00;;;;;;6267464;28;20492;-55
2023/01/11 11:31:05;;;;;;;5.63;5.23;;;7.40;1.00;;;;;;6279794;28;20233;-55
2023/01/11 11:34:15;;;;;;;5.67;5.37;;;7.30;1.00;;;;;;6281357;28;20232;-57
2023/01/11 11:37:25;;;;;;;5.40;5.20;;;7.30;1.00;;;;;;6282222;28;20777;-56
2023/01/11 11:40:33;;;;;;;5.53;5.33;;;7.40;1.00;;;;;;6279727;28;20318;-56
2023/01/11 11:43:37;;;;;;;5.90;5.60;;;7.30;1.00;;;;;;6286848;28;20705;-56
2023/01/11 11:46:41;;;;;;;6.47;6.07;;;7.40;1.00;;;;;;6285982;28;20240;-55
2023/01/11 11:49:44;;;;;;;6.17;5.77;;;7.30;1.00;;;;;;6283085;28;20245;-55
2023/01/11 11:53:03;;;;;;;6.50;6.20;;;7.50;1.00;;;;;;6285136;28;20237;-56
2023/01/11 11:56:15;;;;;;;7.17;6.67;;;7.40;1.00;;;;;;6283687;28;20732;-53
2023/01/11 11:59:20;;;;;;;6.23;5.73;;;7.40;1.00;;;;;;6280525;28;20310;-57
2023/01/11 12:02:29;;;;;;;7.83;7.23;;;7.40;1.00;;;;;;6285828;28;20381;-55
2023/01/11 12:05:32;;;;;;;6.50;6.10;;;7.40;1.00;;;;;;6282911;28;20675;-56
2023/01/11 12:08:36;;;;;;;7.60;7.00;;;7.40;1.00;;;;;;6283005;28;20249;-54
2023/01/11 12:11:41;;;;;;;6.30;5.83;;;7.40;1.00;;;;;;6285313;28;20249;-56
2023/01/11 12:15:06;;;;;;;5.90;5.67;;;7.40;1.00;;;;;;6285854;28;20237;-54
2023/01/11 12:18:24;;;;;;;6.30;6.00;;;7.60;1.00;;;;;;6277849;28;20233;-55
2023/01/11 12:21:29;;;;;;;10.30;9.27;;;7.50;1.00;;;;;;6288701;28;20237;-55
2023/01/11 12:24:32;;;;;;;7.20;6.70;;;7.50;1.00;;;;;;6289940;28;20236;-56
2023/01/11 12:27:44;;;;;;;6.23;5.90;;;7.40;1.00;;;;;;6274438;28;20718;-56
2023/01/11 12:30:55;;;;;;;6.30;6.00;;;7.50;1.00;;;;;;6274148;28;20727;-56
2023/01/11 12:34:03;;;;;;;6.70;6.07;;;7.60;1.00;;;;;;6284114;28;20230;-59
2023/01/11 12:37:19;;;;;;;5.70;5.47;;;7.70;1.00;;;;;;6279731;28;20237;-56
2023/01/11 12:40:32;;;;;;;8.20;7.60;;;7.70;1.00;;;;;;6282105;28;20232;-55
2023/01/11 12:43:54;;;;;;;5.90;5.70;;;7.70;1.00;;;;;;6277712;28;20733;-57
2023/01/11 12:47:12;;;;;;;6.43;5.93;;;7.70;1.00;;;;;;6284405;28;20258;-55
2023/01/11 12:50:21;;;;;;;6.63;6.10;;;7.70;1.00;;;;;;6280681;28;20234;-54
2023/01/11 12:53:51;;;;;;;5.83;5.60;;;7.70;1.00;;;;;;6280152;28;20245;-57
2023/01/11 12:57:13;;;;;;;12.60;10.20;;;7.80;1.00;;;;;;6286137;28;20251;-56
2023/01/11 13:00:27;;;;;;;6.60;6.20;;;7.70;1.00;;;;;;6290297;28;20233;-56
2023/01/11 13:03:54;;;;;;;6.40;6.00;;;7.80;1.00;;;;;;6282664;28;20319;-55
2023/01/11 13:07:09;;;;;;;6.33;6.03;;;7.80;1.00;;;;;;6287045;28;20618;-56
2023/01/11 13:10:21;;;;;;;5.77;5.57;;;7.80;1.00;;;;;;6283092;28;20237;-55
2023/01/11 13:13:31;;;;;;;7.33;6.80;;;7.80;1.00;;;;;;6290201;28;20256;-55
2023/01/11 13:16:44;;;;;;;6.57;6.17;;;7.80;1.00;;;;;;6293606;28;20400;-56
2023/01/11 13:19:55;;;;;;;6.83;6.43;;;7.90;1.00;;;;;;6283225;28;20716;-54
2023/01/11 13:23:03;;;;;;;6.50;6.13;;;7.90;1.00;;;;;;6293564;28;20238;-56
2023/01/11 13:26:17;;;;;;;6.13;5.70;;;7.90;1.00;;;;;;6284094;28;20237;-55
2023/01/11 13:29:26;;;;;;;29.77;18.50;;;7.90;1.00;;;;;;6283810;28;20233;-54
2023/01/11 13:32:35;;;;;;;6.30;5.93;;;7.90;1.00;;;;;;6278180;28;20714;-58
2023/01/11 13:35:43;;;;;;;6.80;6.27;;;7.90;1.00;;;;;;6283272;28;20229;-54
2023/01/11 13:38:51;;;;;;;7.03;6.63;;;8.10;1.00;;;;;;6283805;28;20244;-56
2023/01/11 13:41:57;;;;;;;6.27;5.70;;;8.00;1.00;;;;;;6285751;28;20371;-56
2023/01/11 13:45:07;;;;;;;5.70;5.50;;;8.00;1.00;;;;;;6283707;28;20225;-57
2023/01/11 13:48:24;;;;;;;6.53;6.13;;;8.10;1.00;;;;;;6284057;28;20268;-56
2023/01/11 13:51:36;;;;;;;6.10;5.70;;;8.00;1.00;;;;;;6289377;28;20237;-55
2023/01/11 13:54:51;;;;;;;6.50;6.10;;;8.10;1.00;;;;;;6277368;28;20243;-55
2023/01/11 13:57:59;;;;;;;6.63;6.23;;;8.30;1.00;;;;;;6275724;28;20233;-55
2023/01/11 14:01:07;;;;;;;6.57;6.27;;;8.10;1.00;;;;;;6285960;28;20241;-56
2023/01/11 14:04:20;;;;;;;6.03;5.53;;;8.20;1.00;;;;;;6286550;28;20312;-56
2023/01/11 14:07:35;;;;;;;5.00;4.70;;;8.30;1.00;;;;;;6278027;28;20232;-56
2023/01/11 14:10:52;;;;;;;6.03;5.70;;;8.20;1.00;;;;;;6287348;28;20717;-56
2023/01/11 14:14:18;;;;;;;4.70;4.60;;;8.20;1.00;;;;;;6280639;28;20229;-56
2023/01/11 14:17:32;;;;;;;5.53;5.27;;;8.30;1.00;;;;;;6270586;28;20225;-56
2023/01/11 14:20:44;;;;;;;5.37;5.07;;;8.20;1.00;;;;;;6281286;28;20233;-55
2023/01/11 14:23:50;;;;;;;4.90;4.60;;;8.30;1.00;;;;;;6280572;28;20629;-56
2023/01/11 14:27:11;;;;;;;5.27;5.00;;;8.30;1.00;;;;;;6277368;28;20232;-54
2023/01/11 14:30:28;;;;;;;4.40;4.20;;;8.30;1.00;;;;;;6277720;28;20714;-55
2023/01/11 14:34:07;;;;;;;5.33;4.80;;;8.30;1.00;;;;;;6282732;28;20243;-54
2023/01/11 14:37:50;;;;;;;4.47;4.37;;;8.40;1.00;;;;;;6282535;28;20243;-54
2023/01/11 14:41:17;;;;;;;4.70;4.50;;;8.50;1.00;;;;;;6275026;28;20249;-55
2023/01/11 14:44:38;;;;;;;4.30;4.10;;;8.50;1.00;;;;;;6282083;28;20584;-55
2023/01/11 14:47:57;;;;;;;4.47;4.37;;;8.50;1.00;;;;;;6280418;28;20233;-55
2023/01/11 14:51:29;;;;;;;4.50;4.30;;;8.50;1.00;;;;;;6281002;28;20238;-54
2023/01/11 14:54:40;;;;;;;4.77;4.67;;;8.50;1.00;;;;;;6292184;28;20218;-56
2023/01/11 14:58:02;;;;;;;4.67;4.50;;;8.40;1.00;;;;;;6282721;28;20537;-56
2023/01/11 15:01:09;;;;;;;4.70;4.60;;;8.40;1.00;;;;;;6283183;28;20237;-55
2023/01/11 15:04:21;;;;;;;5.53;5.43;;;8.40;1.00;;;;;;6296240;28;20259;-55
2023/01/11 15:07:33;;;;;;;5.60;5.40;;;8.40;1.00;;;;;;6287615;28;20230;-56
2023/01/11 15:10:58;;;;;;;5.07;4.97;;;8.40;1.00;;;;;;6285848;28;20233;-56
2023/01/11 15:14:17;;;;;;;5.93;5.60;;;8.40;1.00;;;;;;6277061;28;20236;-54
2023/01/11 15:20:52;;;;;;;5.57;5.37;;;8.50;1.00;;;;;;6261595;28;20714;-55
2023/01/11 15:23:58;;;;;;;5.20;5.00;;;8.50;1.00;;;;;;6280465;28;20629;-55
2023/01/11 15:27:03;;;;;;;5.17;4.97;;;8.50;1.00;;;;;;6285832;28;20244;-55
2023/01/11 15:30:28;;;;;;;7.40;6.90;;;8.50;1.00;;;;;;6282726;28;20363;-56
2023/01/11 15:33:46;;;;;;;5.30;5.10;;;8.50;1.00;;;;;;6282190;28;20261;-55
2023/01/11 15:36:57;;;;;;;4.50;4.40;;;8.50;1.00;;;;;;6281076;28;20261;-55
2023/01/11 15:40:05;;;;;;;4.60;4.50;;;8.50;1.00;;;;;;6285100;28;20226;-57
2023/01/11 15:43:54;;;;;;;4.87;4.67;;;8.50;1.00;;;;;;6289343;28;20225;-54
2023/01/11 15:47:28;;;;;;;5.00;4.70;;;8.60;1.00;;;;;;6283647;28;20229;-56
2023/01/11 15:51:02;;;;;;;4.70;4.60;;;8.60;1.00;;;;;;6284603;28;20233;-55
2023/01/11 15:54:41;;;;;;;4.87;4.67;;;8.70;1.00;;;;;;6272562;28;20240;-55
2023/01/11 15:58:02;;;;;;;5.43;5.33;;;8.70;1.00;;;;;;6254414;28;20746;-54
2023/01/11 16:01:23;;;;;;;6.07;5.70;;;8.70;1.00;;;;;;6277974;28;20237;-56
2023/01/11 16:04:30;;;;;;;5.30;5.00;;;8.70;1.00;;;;;;6283437;28;20792;-54
2023/01/11 16:07:40;;;;;;;4.90;4.70;;;8.70;1.00;;;;;;6272350;28;20254;-55
2023/01/11 16:10:52;;;;;;;4.97;4.83;;;8.60;1.00;;;;;;6277162;28;20276;-55
2023/01/11 16:14:41;;;;;;;5.07;4.90;;;8.60;1.00;;;;;;6285162;28;20364;-55
2023/01/11 16:17:47;;;;;;;5.20;5.00;;;8.70;1.00;;;;;;6274900;28;20230;-56
2023/01/11 16:21:00;;;;;;;5.10;4.90;;;8.70;1.00;;;;;;6283531;28;20430;-54
2023/01/11 16:24:07;;;;;;;4.70;4.60;;;8.70;1.00;;;;;;6282986;28;20230;-55
2023/01/11 16:27:21;;;;;;;4.73;4.57;;;8.70;1.00;;;;;;6277493;28;20237;-54
2023/01/11 16:30:25;;;;;;;5.07;4.80;;;8.70;1.00;;;;;;6282043;28;20233;-56
2023/01/11 16:33:30;;;;;;;7.53;4.87;;;8.70;1.00;;;;;;6295797;28;20239;-53
2023/01/11 16:36:40;;;;;;;4.80;4.70;;;8.70;1.00;;;;;;6278250;28;20233;-56
2023/01/11 16:39:45;;;;;;;5.07;4.87;;;8.70;1.00;;;;;;6271354;28;20259;-55
2023/01/11 16:42:54;;;;;;;4.80;4.70;;;8.70;1.00;;;;;;6288171;28;20256;-55
2023/01/11 16:45:57;;;;;;;4.70;4.60;;;8.70;1.00;;;;;;6279884;28;20231;-55
2023/01/11 16:49:09;;;;;;;5.10;4.90;;;8.80;1.00;;;;;;6280745;28;20248;-55
2023/01/11 16:52:35;;;;;;;5.20;5.10;;;8.90;1.00;;;;;;6284300;28;20304;-56
2023/01/11 16:55:41;;;;;;;4.97;4.77;;;8.80;1.00;;;;;;6284854;28;20248;-58
2023/01/11 16:59:05;;;;;;;4.57;4.47;;;8.80;1.00;;;;;;6285585;28;20766;-54
2023/01/11 17:02:26;;;;;;;5.33;5.17;;;8.80;1.00;;;;;;6282305;28;20225;-55
2023/01/11 17:05:29;;;;;;;5.43;5.20;;;8.90;1.00;;;;;;6287176;28;20226;-56
2023/01/11 17:08:34;;;;;;;6.40;5.80;;;8.90;1.00;;;;;;6285817;28;20738;-56
2023/01/11 17:11:44;;;;;;;5.47;5.27;;;9.00;1.00;;;;;;6283588;28;20256;-56
2023/01/11 17:15:07;;;;;;;5.43;5.23;;;9.00;1.00;;;;;;6282884;28;20234;-56
2023/01/11 17:18:11;;;;;;;6.00;5.70;;;9.00;1.00;;;;;;6267131;28;20230;-55
2023/01/11 17:21:18;;;;;;;6.07;5.60;;;8.90;1.00;;;;;;6282182;28;20400;-55
2023/01/11 17:24:24;;;;;;;5.57;5.27;;;9.00;1.00;;;;;;6284917;28;20375;-55
2023/01/11 17:27:34;;;;;;;5.70;5.50;;;8.90;1.00;;;;;;6270704;28;20365;-55